sensor_id;sensor_type;location;lat;lon;timestamp;temperature;humidity
30889;DHT22;51092;50.874;7.024;2023-06-22T00:00:49;22.20;66.90
30889;DHT22;51092;50.874;7.024;2023-06-22T00:01:51;22.20;66.90
30889;DHT22;51092;50.874;7.024;2023-06-22T00:02:53;22.20;66.90
30889;DHT22;51092;50.874;7.024;2023-06-22T00:03:55;22.20;67.20
30889;DHT22;51092;50.874;7.024;2023-06-22T00:04:58;22.20;67.20
30889;DHT22;51092;50.874;7.024;2023-06-22T00:06:00;22.20;66.60
30889;DHT22;51092;50.874;7.024;2023-06-22T00:07:02;22.20;66.90
30889;DHT22;51092;50.874;7.024;2023-06-22T00:08:04;22.10;66.80
30889;DHT22;51092;50.874;7.024;2023-06-22T00:09:07;22.10;67.30
30889;DHT22;51092;50.874;7.024;2023-06-22T00:10:09;22.10;67.30
30889;DHT22;51092;50.874;7.024;2023-06-22T00:11:11;22.10;66.80
30889;DHT22;51092;50.874;7.024;2023-06-22T00:12:13;22.10;66.70
30889;DHT22;51092;50.874;7.024;2023-06-22T00:13:16;22.10;66.40
30889;DHT22;51092;50.874;7.024;2023-06-22T00:14:18;22.10;66.70
30889;DHT22;51092;50.874;7.024;2023-06-22T00:15:21;22.20;65.80
30889;DHT22;51092;50.874;7.024;2023-06-22T00:16:22;22.30;65.10
30889;DHT22;51092;50.874;7.024;2023-06-22T00:17:24;22.30;64.90
30889;DHT22;51092;50.874;7.024;2023-06-22T00:18:26;22.30;65.00
30889;DHT22;51092;50.874;7.024;2023-06-22T00:19:29;22.20;65.30
30889;DHT22;51092;50.874;7.024;2023-06-22T00:20:32;22.20;64.90
30889;DHT22;51092;50.874;7.024;2023-06-22T00:21:38;22.20;65.40
30889;DHT22;51092;50.874;7.024;2023-06-22T00:22:39;22.10;65.50
30889;DHT22;51092;50.874;7.024;2023-06-22T00:23:42;22.10;65.60
30889;DHT22;51092;50.874;7.024;2023-06-22T00:24:44;22.20;65.30
30889;DHT22;51092;50.874;7.024;2023-06-22T00:25:47;22.20;64.80
30889;DHT22;51092;50.874;7.024;2023-06-22T00:26:50;22.20;65.50
30889;DHT22;51092;50.874;7.024;2023-06-22T00:27:53;22.10;65.60
30889;DHT22;51092;50.874;7.024;2023-06-22T00:28:54;22.10;65.30
30889;DHT22;51092;50.874;7.024;2023-06-22T00:29:56;22.10;65.50
30889;DHT22;51092;50.874;7.024;2023-06-22T00:30:58;22.10;66.00
30889;DHT22;51092;50.874;7.024;2023-06-22T00:32:01;22.10;65.90
30889;DHT22;51092;50.874;7.024;2023-06-22T00:33:03;22.10;66.00
30889;DHT22;51092;50.874;7.024;2023-06-22T00:34:08;22.10;66.10
30889;DHT22;51092;50.874;7.024;2023-06-22T00:35:11;22.10;66.00
30889;DHT22;51092;50.874;7.024;2023-06-22T00:36:15;22.10;65.70
30889;DHT22;51092;50.874;7.024;2023-06-22T00:37:18;22.10;65.80
30889;DHT22;51092;50.874;7.024;2023-06-22T00:38:20;22.10;65.60
30889;DHT22;51092;50.874;7.024;2023-06-22T00:39:22;22.10;65.80
30889;DHT22;51092;50.874;7.024;2023-06-22T00:40:23;22.10;65.60
30889;DHT22;51092;50.874;7.024;2023-06-22T00:41:25;22.10;65.60
30889;DHT22;51092;50.874;7.024;2023-06-22T00:42:29;22.10;65.90
30889;DHT22;51092;50.874;7.024;2023-06-22T00:43:31;22.10;65.80
30889;DHT22;51092;50.874;7.024;2023-06-22T00:44:33;22.10;65.60
30889;DHT22;51092;50.874;7.024;2023-06-22T00:45:36;22.00;65.90
30889;DHT22;51092;50.874;7.024;2023-06-22T00:46:37;22.00;66.40
30889;DHT22;51092;50.874;7.024;2023-06-22T00:47:40;22.00;66.50
30889;DHT22;51092;50.874;7.024;2023-06-22T00:48:44;22.00;66.20
30889;DHT22;51092;50.874;7.024;2023-06-22T00:49:48;22.10;65.70
30889;DHT22;51092;50.874;7.024;2023-06-22T00:50:52;22.10;66.00
30889;DHT22;51092;50.874;7.024;2023-06-22T00:51:58;22.10;65.80
30889;DHT22;51092;50.874;7.024;2023-06-22T00:53:02;22.10;65.60
30889;DHT22;51092;50.874;7.024;2023-06-22T00:54:09;22.10;65.50
30889;DHT22;51092;50.874;7.024;2023-06-22T00:55:12;22.10;65.50
30889;DHT22;51092;50.874;7.024;2023-06-22T00:56:15;22.10;65.80
30889;DHT22;51092;50.874;7.024;2023-06-22T00:57:20;22.10;65.70
30889;DHT22;51092;50.874;7.024;2023-06-22T00:58:23;22.10;65.50
30889;DHT22;51092;50.874;7.024;2023-06-22T00:59:26;22.00;65.80
30889;DHT22;51092;50.874;7.024;2023-06-22T01:00:27;22.00;66.00
30889;DHT22;51092;50.874;7.024;2023-06-22T01:01:29;22.00;65.90
30889;DHT22;51092;50.874;7.024;2023-06-22T01:02:30;22.00;65.90
30889;DHT22;51092;50.874;7.024;2023-06-22T01:03:33;22.10;65.80
30889;DHT22;51092;50.874;7.024;2023-06-22T01:04:35;22.10;65.40
30889;DHT22;51092;50.874;7.024;2023-06-22T01:05:39;22.10;65.90
30889;DHT22;51092;50.874;7.024;2023-06-22T01:07:02;22.10;65.70
30889;DHT22;51092;50.874;7.024;2023-06-22T01:08:15;22.10;65.50
30889;DHT22;51092;50.874;7.024;2023-06-22T01:09:22;22.10;65.30
30889;DHT22;51092;50.874;7.024;2023-06-22T01:10:30;22.10;65.20
30889;DHT22;51092;50.874;7.024;2023-06-22T01:11:37;22.10;65.50
30889;DHT22;51092;50.874;7.024;2023-06-22T01:12:48;22.10;65.40
30889;DHT22;51092;50.874;7.024;2023-06-22T01:13:56;22.10;65.40
30889;DHT22;51092;50.874;7.024;2023-06-22T01:15:05;22.00;65.50
30889;DHT22;51092;50.874;7.024;2023-06-22T01:16:13;22.00;65.90
30889;DHT22;51092;50.874;7.024;2023-06-22T01:17:17;22.00;66.00
30889;DHT22;51092;50.874;7.024;2023-06-22T01:18:21;22.00;66.10
30889;DHT22;51092;50.874;7.024;2023-06-22T01:19:34;22.00;66.30
30889;DHT22;51092;50.874;7.024;2023-06-22T01:20:37;22.00;66.10
30889;DHT22;51092;50.874;7.024;2023-06-22T01:21:41;21.90;66.30
30889;DHT22;51092;50.874;7.024;2023-06-22T01:22:59;21.90;66.80
30889;DHT22;51092;50.874;7.024;2023-06-22T01:24:16;21.90;66.70
30889;DHT22;51092;50.874;7.024;2023-06-22T01:25:24;21.90;67.10
30889;DHT22;51092;50.874;7.024;2023-06-22T01:26:36;21.90;66.50
30889;DHT22;51092;50.874;7.024;2023-06-22T01:27:49;21.90;66.70
30889;DHT22;51092;50.874;7.024;2023-06-22T01:28:55;21.90;66.80
30889;DHT22;51092;50.874;7.024;2023-06-22T01:29:59;21.90;66.40
30889;DHT22;51092;50.874;7.024;2023-06-22T01:31:02;21.90;66.50
30889;DHT22;51092;50.874;7.024;2023-06-22T01:32:07;21.90;66.50
30889;DHT22;51092;50.874;7.024;2023-06-22T01:33:11;21.90;66.70
30889;DHT22;51092;50.874;7.024;2023-06-22T01:34:14;21.90;66.90
30889;DHT22;51092;50.874;7.024;2023-06-22T01:35:17;21.90;67.20
30889;DHT22;51092;50.874;7.024;2023-06-22T01:36:20;21.80;67.40
30889;DHT22;51092;50.874;7.024;2023-06-22T01:37:23;21.80;68.10
30889;DHT22;51092;50.874;7.024;2023-06-22T01:38:25;21.80;68.00
30889;DHT22;51092;50.874;7.024;2023-06-22T01:39:27;21.80;68.30
30889;DHT22;51092;50.874;7.024;2023-06-22T01:40:30;21.80;68.20
30889;DHT22;51092;50.874;7.024;2023-06-22T01:41:35;21.80;68.30
30889;DHT22;51092;50.874;7.024;2023-06-22T01:42:38;21.80;68.90
30889;DHT22;51092;50.874;7.024;2023-06-22T01:43:41;21.70;69.20
30889;DHT22;51092;50.874;7.024;2023-06-22T01:44:45;21.70;69.40
30889;DHT22;51092;50.874;7.024;2023-06-22T01:45:48;21.70;69.50
30889;DHT22;51092;50.874;7.024;2023-06-22T01:46:50;21.70;69.20
30889;DHT22;51092;50.874;7.024;2023-06-22T01:47:54;21.70;69.40
30889;DHT22;51092;50.874;7.024;2023-06-22T01:48:56;21.70;69.20
30889;DHT22;51092;50.874;7.024;2023-06-22T01:49:58;21.80;69.20
30889;DHT22;51092;50.874;7.024;2023-06-22T01:51:00;21.80;68.80
30889;DHT22;51092;50.874;7.024;2023-06-22T01:52:03;21.80;68.60
30889;DHT22;51092;50.874;7.024;2023-06-22T01:53:05;21.80;68.70
30889;DHT22;51092;50.874;7.024;2023-06-22T01:54:08;21.80;68.50
30889;DHT22;51092;50.874;7.024;2023-06-22T01:55:10;21.80;68.30
30889;DHT22;51092;50.874;7.024;2023-06-22T01:56:12;21.80;69.00
30889;DHT22;51092;50.874;7.024;2023-06-22T01:57:14;21.80;69.10
30889;DHT22;51092;50.874;7.024;2023-06-22T01:58:16;21.80;68.30
30889;DHT22;51092;50.874;7.024;2023-06-22T01:59:25;21.70;68.80
30889;DHT22;51092;50.874;7.024;2023-06-22T02:00:32;21.70;68.80
30889;DHT22;51092;50.874;7.024;2023-06-22T02:01:41;21.70;68.80
30889;DHT22;51092;50.874;7.024;2023-06-22T02:02:46;21.70;68.90
30889;DHT22;51092;50.874;7.024;2023-06-22T02:04:00;21.70;68.70
30889;DHT22;51092;50.874;7.024;2023-06-22T02:05:06;21.70;68.60
30889;DHT22;51092;50.874;7.024;2023-06-22T02:06:16;21.80;68.30
30889;DHT22;51092;50.874;7.024;2023-06-22T02:07:21;21.80;67.80
30889;DHT22;51092;50.874;7.024;2023-06-22T02:08:29;21.80;67.50
30889;DHT22;51092;50.874;7.024;2023-06-22T02:09:31;21.80;67.60
30889;DHT22;51092;50.874;7.024;2023-06-22T02:10:37;21.80;67.30
30889;DHT22;51092;50.874;7.024;2023-06-22T02:11:41;21.80;67.30
30889;DHT22;51092;50.874;7.024;2023-06-22T02:12:45;21.80;67.40
30889;DHT22;51092;50.874;7.024;2023-06-22T02:13:48;21.80;67.30
30889;DHT22;51092;50.874;7.024;2023-06-22T02:14:51;21.90;67.20
30889;DHT22;51092;50.874;7.024;2023-06-22T02:15:55;21.90;67.00
30889;DHT22;51092;50.874;7.024;2023-06-22T02:16:58;21.80;67.10
30889;DHT22;51092;50.874;7.024;2023-06-22T02:18:00;21.80;67.30
30889;DHT22;51092;50.874;7.024;2023-06-22T02:19:03;21.90;67.00
30889;DHT22;51092;50.874;7.024;2023-06-22T02:20:06;21.90;66.90
30889;DHT22;51092;50.874;7.024;2023-06-22T02:21:10;21.90;67.10
30889;DHT22;51092;50.874;7.024;2023-06-22T02:22:11;21.80;67.20
30889;DHT22;51092;50.874;7.024;2023-06-22T02:23:14;21.80;67.60
30889;DHT22;51092;50.874;7.024;2023-06-22T02:24:16;21.70;68.00
30889;DHT22;51092;50.874;7.024;2023-06-22T02:25:18;21.70;68.70
30889;DHT22;51092;50.874;7.024;2023-06-22T02:26:20;21.70;69.10
30889;DHT22;51092;50.874;7.024;2023-06-22T02:27:23;21.70;69.10
30889;DHT22;51092;50.874;7.024;2023-06-22T02:28:25;21.70;68.80
30889;DHT22;51092;50.874;7.024;2023-06-22T02:29:27;21.70;69.30
30889;DHT22;51092;50.874;7.024;2023-06-22T02:30:29;21.60;69.20
30889;DHT22;51092;50.874;7.024;2023-06-22T02:31:33;21.70;69.00
30889;DHT22;51092;50.874;7.024;2023-06-22T02:32:34;21.70;68.80
30889;DHT22;51092;50.874;7.024;2023-06-22T02:33:37;21.80;68.60
30889;DHT22;51092;50.874;7.024;2023-06-22T02:34:38;21.80;68.20
30889;DHT22;51092;50.874;7.024;2023-06-22T02:35:41;21.90;67.70
30889;DHT22;51092;50.874;7.024;2023-06-22T02:36:47;22.00;67.00
30889;DHT22;51092;50.874;7.024;2023-06-22T02:37:52;22.00;66.60
30889;DHT22;51092;50.874;7.024;2023-06-22T02:38:55;22.00;66.10
30889;DHT22;51092;50.874;7.024;2023-06-22T02:40:02;22.00;66.00
30889;DHT22;51092;50.874;7.024;2023-06-22T02:41:05;22.10;65.50
30889;DHT22;51092;50.874;7.024;2023-06-22T02:42:08;22.10;65.20
30889;DHT22;51092;50.874;7.024;2023-06-22T02:43:11;22.20;64.60
30889;DHT22;51092;50.874;7.024;2023-06-22T02:44:14;22.20;64.60
30889;DHT22;51092;50.874;7.024;2023-06-22T02:45:16;22.20;64.10
30889;DHT22;51092;50.874;7.024;2023-06-22T02:46:19;22.20;64.20
30889;DHT22;51092;50.874;7.024;2023-06-22T02:47:22;22.20;64.30
30889;DHT22;51092;50.874;7.024;2023-06-22T02:48:25;22.10;64.80
30889;DHT22;51092;50.874;7.024;2023-06-22T02:49:26;22.10;65.40
30889;DHT22;51092;50.874;7.024;2023-06-22T02:50:29;22.00;65.80
30889;DHT22;51092;50.874;7.024;2023-06-22T02:52:35;21.90;67.50
30889;DHT22;51092;50.874;7.024;2023-06-22T02:53:36;21.80;68.60
30889;DHT22;51092;50.874;7.024;2023-06-22T02:54:39;21.80;68.80
30889;DHT22;51092;50.874;7.024;2023-06-22T02:55:40;21.70;69.00
30889;DHT22;51092;50.874;7.024;2023-06-22T02:56:42;21.80;69.30
30889;DHT22;51092;50.874;7.024;2023-06-22T02:57:45;21.80;69.20
30889;DHT22;51092;50.874;7.024;2023-06-22T02:58:48;21.70;69.50
30889;DHT22;51092;50.874;7.024;2023-06-22T02:59:50;21.70;69.70
30889;DHT22;51092;50.874;7.024;2023-06-22T03:00:52;21.70;69.70
30889;DHT22;51092;50.874;7.024;2023-06-22T03:01:53;21.70;70.00
30889;DHT22;51092;50.874;7.024;2023-06-22T03:02:58;21.60;70.00
30889;DHT22;51092;50.874;7.024;2023-06-22T03:03:59;21.60;70.60
30889;DHT22;51092;50.874;7.024;2023-06-22T03:05:01;21.60;70.70
30889;DHT22;51092;50.874;7.024;2023-06-22T03:06:02;21.70;70.50
30889;DHT22;51092;50.874;7.024;2023-06-22T03:07:05;21.70;70.30
30889;DHT22;51092;50.874;7.024;2023-06-22T03:08:07;21.70;70.00
30889;DHT22;51092;50.874;7.024;2023-06-22T03:09:09;21.80;69.60
30889;DHT22;51092;50.874;7.024;2023-06-22T03:10:13;21.80;69.30
30889;DHT22;51092;50.874;7.024;2023-06-22T03:11:15;21.90;68.90
30889;DHT22;51092;50.874;7.024;2023-06-22T03:12:18;21.90;68.50
30889;DHT22;51092;50.874;7.024;2023-06-22T03:13:20;21.90;68.00
30889;DHT22;51092;50.874;7.024;2023-06-22T03:14:21;21.90;67.90
30889;DHT22;51092;50.874;7.024;2023-06-22T03:15:22;22.00;69.10
30889;DHT22;51092;50.874;7.024;2023-06-22T03:16:23;22.00;68.30
30889;DHT22;51092;50.874;7.024;2023-06-22T03:17:26;22.00;69.40
30889;DHT22;51092;50.874;7.024;2023-06-22T03:18:29;22.00;69.10
30889;DHT22;51092;50.874;7.024;2023-06-22T03:19:31;22.00;68.70
30889;DHT22;51092;50.874;7.024;2023-06-22T03:20:33;22.00;69.10
30889;DHT22;51092;50.874;7.024;2023-06-22T03:21:36;22.00;69.00
30889;DHT22;51092;50.874;7.024;2023-06-22T03:22:40;22.00;68.50
30889;DHT22;51092;50.874;7.024;2023-06-22T03:23:43;22.10;67.50
30889;DHT22;51092;50.874;7.024;2023-06-22T03:24:45;22.00;67.60
30889;DHT22;51092;50.874;7.024;2023-06-22T03:25:47;22.00;67.50
30889;DHT22;51092;50.874;7.024;2023-06-22T03:26:49;22.00;67.50
30889;DHT22;51092;50.874;7.024;2023-06-22T03:27:51;22.10;67.10
30889;DHT22;51092;50.874;7.024;2023-06-22T03:28:53;22.10;67.20
30889;DHT22;51092;50.874;7.024;2023-06-22T03:29:56;22.10;67.00
30889;DHT22;51092;50.874;7.024;2023-06-22T03:30:58;22.10;66.90
30889;DHT22;51092;50.874;7.024;2023-06-22T03:32:00;22.00;67.80
30889;DHT22;51092;50.874;7.024;2023-06-22T03:33:01;22.00;68.10
30889;DHT22;51092;50.874;7.024;2023-06-22T03:34:04;22.00;68.60
30889;DHT22;51092;50.874;7.024;2023-06-22T03:35:06;21.90;69.40
30889;DHT22;51092;50.874;7.024;2023-06-22T03:36:08;21.90;70.00
30889;DHT22;51092;50.874;7.024;2023-06-22T03:37:11;21.90;70.20
30889;DHT22;51092;50.874;7.024;2023-06-22T03:38:13;21.90;70.20
30889;DHT22;51092;50.874;7.024;2023-06-22T03:39:16;21.90;69.90
30889;DHT22;51092;50.874;7.024;2023-06-22T03:40:17;21.90;69.60
30889;DHT22;51092;50.874;7.024;2023-06-22T03:41:20;21.90;69.40
30889;DHT22;51092;50.874;7.024;2023-06-22T03:42:21;21.90;69.60
30889;DHT22;51092;50.874;7.024;2023-06-22T03:43:24;22.00;69.30
30889;DHT22;51092;50.874;7.024;2023-06-22T03:44:25;22.00;69.50
30889;DHT22;51092;50.874;7.024;2023-06-22T03:45:28;22.00;69.30
30889;DHT22;51092;50.874;7.024;2023-06-22T03:46:29;22.00;69.30
30889;DHT22;51092;50.874;7.024;2023-06-22T03:47:32;22.10;69.00
30889;DHT22;51092;50.874;7.024;2023-06-22T03:48:33;22.10;68.80
30889;DHT22;51092;50.874;7.024;2023-06-22T03:49:37;22.10;69.80
30889;DHT22;51092;50.874;7.024;2023-06-22T03:50:39;22.10;69.50
30889;DHT22;51092;50.874;7.024;2023-06-22T03:51:41;22.10;69.70
30889;DHT22;51092;50.874;7.024;2023-06-22T03:52:42;22.10;70.00
30889;DHT22;51092;50.874;7.024;2023-06-22T03:53:45;22.10;70.50
30889;DHT22;51092;50.874;7.024;2023-06-22T03:54:46;22.10;70.40
30889;DHT22;51092;50.874;7.024;2023-06-22T03:55:50;22.10;70.50
30889;DHT22;51092;50.874;7.024;2023-06-22T03:56:51;22.00;71.00
30889;DHT22;51092;50.874;7.024;2023-06-22T03:57:54;22.10;71.10
30889;DHT22;51092;50.874;7.024;2023-06-22T03:58:58;22.10;71.80
30889;DHT22;51092;50.874;7.024;2023-06-22T04:00:00;22.10;71.40
30889;DHT22;51092;50.874;7.024;2023-06-22T04:01:02;22.10;71.80
30889;DHT22;51092;50.874;7.024;2023-06-22T04:02:04;22.10;72.50
30889;DHT22;51092;50.874;7.024;2023-06-22T04:03:06;22.10;72.70
30889;DHT22;51092;50.874;7.024;2023-06-22T04:04:08;22.20;72.90
30889;DHT22;51092;50.874;7.024;2023-06-22T04:05:12;22.30;73.50
30889;DHT22;51092;50.874;7.024;2023-06-22T04:06:14;22.30;73.30
30889;DHT22;51092;50.874;7.024;2023-06-22T04:07:16;22.30;73.80
30889;DHT22;51092;50.874;7.024;2023-06-22T04:08:19;22.40;73.90
30889;DHT22;51092;50.874;7.024;2023-06-22T04:09:21;22.40;74.10
30889;DHT22;51092;50.874;7.024;2023-06-22T04:10:23;22.30;76.20
30889;DHT22;51092;50.874;7.024;2023-06-22T04:11:26;22.30;76.30
30889;DHT22;51092;50.874;7.024;2023-06-22T04:12:27;22.30;76.60
30889;DHT22;51092;50.874;7.024;2023-06-22T04:13:30;22.40;76.90
30889;DHT22;51092;50.874;7.024;2023-06-22T04:14:31;22.40;76.30
30889;DHT22;51092;50.874;7.024;2023-06-22T04:15:34;22.40;76.50
30889;DHT22;51092;50.874;7.024;2023-06-22T04:16:36;22.40;77.20
30889;DHT22;51092;50.874;7.024;2023-06-22T04:17:38;22.40;77.50
30889;DHT22;51092;50.874;7.024;2023-06-22T04:18:40;22.40;78.80
30889;DHT22;51092;50.874;7.024;2023-06-22T04:19:43;22.40;79.20
30889;DHT22;51092;50.874;7.024;2023-06-22T04:20:45;22.40;79.30
30889;DHT22;51092;50.874;7.024;2023-06-22T04:21:48;22.40;79.10
30889;DHT22;51092;50.874;7.024;2023-06-22T04:22:51;22.30;79.90
30889;DHT22;51092;50.874;7.024;2023-06-22T04:23:52;22.30;82.20
30889;DHT22;51092;50.874;7.024;2023-06-22T04:24:55;22.20;83.00
30889;DHT22;51092;50.874;7.024;2023-06-22T04:25:56;22.20;82.50
30889;DHT22;51092;50.874;7.024;2023-06-22T04:26:59;22.20;83.40
30889;DHT22;51092;50.874;7.024;2023-06-22T04:28:03;22.20;83.80
30889;DHT22;51092;50.874;7.024;2023-06-22T04:29:05;22.20;85.40
30889;DHT22;51092;50.874;7.024;2023-06-22T04:30:10;22.10;86.60
30889;DHT22;51092;50.874;7.024;2023-06-22T04:31:11;22.10;87.30
30889;DHT22;51092;50.874;7.024;2023-06-22T04:32:14;22.20;86.90
30889;DHT22;51092;50.874;7.024;2023-06-22T04:33:16;22.20;83.50
30889;DHT22;51092;50.874;7.024;2023-06-22T04:34:19;22.20;84.60
30889;DHT22;51092;50.874;7.024;2023-06-22T04:35:20;22.20;83.80
30889;DHT22;51092;50.874;7.024;2023-06-22T04:36:24;22.20;83.30
30889;DHT22;51092;50.874;7.024;2023-06-22T04:37:26;22.10;83.00
30889;DHT22;51092;50.874;7.024;2023-06-22T04:38:28;22.10;83.30
30889;DHT22;51092;50.874;7.024;2023-06-22T04:39:30;22.10;84.30
30889;DHT22;51092;50.874;7.024;2023-06-22T04:40:32;22.10;83.40
30889;DHT22;51092;50.874;7.024;2023-06-22T04:41:34;22.10;84.90
30889;DHT22;51092;50.874;7.024;2023-06-22T04:42:42;22.10;84.10
30889;DHT22;51092;50.874;7.024;2023-06-22T04:43:53;22.10;83.60
30889;DHT22;51092;50.874;7.024;2023-06-22T04:45:01;22.10;84.60
30889;DHT22;51092;50.874;7.024;2023-06-22T04:46:02;22.20;83.50
30889;DHT22;51092;50.874;7.024;2023-06-22T04:47:05;22.20;83.20
30889;DHT22;51092;50.874;7.024;2023-06-22T04:48:09;22.20;83.30
30889;DHT22;51092;50.874;7.024;2023-06-22T04:49:16;22.20;84.20
30889;DHT22;51092;50.874;7.024;2023-06-22T04:50:18;22.20;85.40
30889;DHT22;51092;50.874;7.024;2023-06-22T04:51:22;22.20;86.90
30889;DHT22;51092;50.874;7.024;2023-06-22T04:52:25;22.10;90.30
30889;DHT22;51092;50.874;7.024;2023-06-22T04:53:28;22.10;91.00
30889;DHT22;51092;50.874;7.024;2023-06-22T04:54:31;22.10;91.40
30889;DHT22;51092;50.874;7.024;2023-06-22T04:55:34;22.20;91.30
30889;DHT22;51092;50.874;7.024;2023-06-22T04:56:35;22.20;92.30
30889;DHT22;51092;50.874;7.024;2023-06-22T04:57:38;22.20;92.20
30889;DHT22;51092;50.874;7.024;2023-06-22T04:58:40;22.30;91.40
30889;DHT22;51092;50.874;7.024;2023-06-22T04:59:43;22.20;91.40
30889;DHT22;51092;50.874;7.024;2023-06-22T05:00:44;22.20;92.00
30889;DHT22;51092;50.874;7.024;2023-06-22T05:01:46;22.20;91.50
30889;DHT22;51092;50.874;7.024;2023-06-22T05:02:47;22.20;93.00
30889;DHT22;51092;50.874;7.024;2023-06-22T05:03:49;22.20;93.20
30889;DHT22;51092;50.874;7.024;2023-06-22T05:04:51;22.20;95.20
30889;DHT22;51092;50.874;7.024;2023-06-22T05:05:54;22.30;95.30
30889;DHT22;51092;50.874;7.024;2023-06-22T05:06:57;22.30;94.20
30889;DHT22;51092;50.874;7.024;2023-06-22T05:08:01;22.50;91.70
30889;DHT22;51092;50.874;7.024;2023-06-22T05:09:04;22.40;92.70
30889;DHT22;51092;50.874;7.024;2023-06-22T05:10:07;22.40;93.50
30889;DHT22;51092;50.874;7.024;2023-06-22T05:11:11;22.50;92.80
30889;DHT22;51092;50.874;7.024;2023-06-22T05:12:12;22.60;90.40
30889;DHT22;51092;50.874;7.024;2023-06-22T05:13:15;22.60;90.30
30889;DHT22;51092;50.874;7.024;2023-06-22T05:14:17;22.50;90.90
30889;DHT22;51092;50.874;7.024;2023-06-22T05:15:19;22.40;91.50
30889;DHT22;51092;50.874;7.024;2023-06-22T05:16:24;22.40;94.40
30889;DHT22;51092;50.874;7.024;2023-06-22T05:17:26;22.40;95.40
30889;DHT22;51092;50.874;7.024;2023-06-22T05:18:28;22.50;95.20
30889;DHT22;51092;50.874;7.024;2023-06-22T05:19:30;22.50;92.30
30889;DHT22;51092;50.874;7.024;2023-06-22T05:20:34;22.50;94.50
30889;DHT22;51092;50.874;7.024;2023-06-22T05:21:37;22.60;93.50
30889;DHT22;51092;50.874;7.024;2023-06-22T05:22:40;22.60;91.00
30889;DHT22;51092;50.874;7.024;2023-06-22T05:23:43;22.70;89.50
30889;DHT22;51092;50.874;7.024;2023-06-22T05:24:45;22.60;91.00
30889;DHT22;51092;50.874;7.024;2023-06-22T05:25:47;22.50;92.60
30889;DHT22;51092;50.874;7.024;2023-06-22T05:26:49;22.60;92.20
30889;DHT22;51092;50.874;7.024;2023-06-22T05:27:52;22.80;90.00
30889;DHT22;51092;50.874;7.024;2023-06-22T05:28:53;23.00;86.80
30889;DHT22;51092;50.874;7.024;2023-06-22T05:29:56;23.10;84.60
30889;DHT22;51092;50.874;7.024;2023-06-22T05:30:57;23.20;84.90
30889;DHT22;51092;50.874;7.024;2023-06-22T05:32:00;23.40;80.80
30889;DHT22;51092;50.874;7.024;2023-06-22T05:33:02;23.50;80.90
30889;DHT22;51092;50.874;7.024;2023-06-22T05:34:04;23.70;77.50
30889;DHT22;51092;50.874;7.024;2023-06-22T05:35:06;23.80;76.00
30889;DHT22;51092;50.874;7.024;2023-06-22T05:36:09;23.80;75.20
30889;DHT22;51092;50.874;7.024;2023-06-22T05:37:11;23.80;74.20
30889;DHT22;51092;50.874;7.024;2023-06-22T05:38:14;23.80;74.90
30889;DHT22;51092;50.874;7.024;2023-06-22T05:39:17;23.90;75.60
30889;DHT22;51092;50.874;7.024;2023-06-22T05:40:19;23.90;72.60
30889;DHT22;51092;50.874;7.024;2023-06-22T05:41:21;23.80;75.90
30889;DHT22;51092;50.874;7.024;2023-06-22T05:42:23;23.80;74.90
30889;DHT22;51092;50.874;7.024;2023-06-22T05:43:26;23.80;73.70
30889;DHT22;51092;50.874;7.024;2023-06-22T05:44:29;23.70;75.80
30889;DHT22;51092;50.874;7.024;2023-06-22T05:45:30;23.60;76.70
30889;DHT22;51092;50.874;7.024;2023-06-22T05:46:33;23.60;76.70
30889;DHT22;51092;50.874;7.024;2023-06-22T05:47:34;23.60;77.40
30889;DHT22;51092;50.874;7.024;2023-06-22T05:48:37;23.70;79.10
30889;DHT22;51092;50.874;7.024;2023-06-22T05:49:38;23.70;77.60
30889;DHT22;51092;50.874;7.024;2023-06-22T05:50:41;23.70;76.60
30889;DHT22;51092;50.874;7.024;2023-06-22T05:51:42;23.70;76.40
30889;DHT22;51092;50.874;7.024;2023-06-22T05:52:45;23.80;77.00
30889;DHT22;51092;50.874;7.024;2023-06-22T05:53:46;23.90;74.90
30889;DHT22;51092;50.874;7.024;2023-06-22T05:54:52;24.00;74.30
30889;DHT22;51092;50.874;7.024;2023-06-22T05:55:53;24.10;72.50
30889;DHT22;51092;50.874;7.024;2023-06-22T05:56:56;24.10;70.80
30889;DHT22;51092;50.874;7.024;2023-06-22T05:57:58;24.10;71.70
30889;DHT22;51092;50.874;7.024;2023-06-22T05:59:00;24.20;71.90
30889;DHT22;51092;50.874;7.024;2023-06-22T06:00:03;24.30;70.60
30889;DHT22;51092;50.874;7.024;2023-06-22T06:01:08;24.40;70.20
30889;DHT22;51092;50.874;7.024;2023-06-22T06:02:10;24.60;68.10
30889;DHT22;51092;50.874;7.024;2023-06-22T06:03:12;24.70;67.50
30889;DHT22;51092;50.874;7.024;2023-06-22T06:04:18;24.80;67.00
30889;DHT22;51092;50.874;7.024;2023-06-22T06:05:20;24.90;65.30
30889;DHT22;51092;50.874;7.024;2023-06-22T06:06:24;25.00;30.00
30889;DHT22;51092;50.874;7.024;2023-06-22T06:07:29;24.80;64.50
30889;DHT22;51092;50.874;7.024;2023-06-22T06:08:31;25.00;30.00
30889;DHT22;51092;50.874;7.024;2023-06-22T06:09:32;24.90;63.80
30889;DHT22;51092;50.874;7.024;2023-06-22T06:10:35;24.80;64.70
30889;DHT22;51092;50.874;7.024;2023-06-22T06:11:37;24.80;64.80
30889;DHT22;51092;50.874;7.024;2023-06-22T06:12:39;24.80;65.20
30889;DHT22;51092;50.874;7.024;2023-06-22T06:13:42;24.90;64.70
30889;DHT22;51092;50.874;7.024;2023-06-22T06:14:43;25.00;30.00
30889;DHT22;51092;50.874;7.024;2023-06-22T06:15:46;24.90;62.80
30889;DHT22;51092;50.874;7.024;2023-06-22T06:16:48;24.80;64.20
30889;DHT22;51092;50.874;7.024;2023-06-22T06:17:51;24.80;65.50
30889;DHT22;51092;50.874;7.024;2023-06-22T06:18:53;24.80;64.70
30889;DHT22;51092;50.874;7.024;2023-06-22T06:19:56;24.90;63.40
30889;DHT22;51092;50.874;7.024;2023-06-22T06:20:58;25.00;30.00
30889;DHT22;51092;50.874;7.024;2023-06-22T06:22:00;25.00;30.00
30889;DHT22;51092;50.874;7.024;2023-06-22T06:23:02;24.80;62.30
30889;DHT22;51092;50.874;7.024;2023-06-22T06:24:05;24.80;62.20
30889;DHT22;51092;50.874;7.024;2023-06-22T06:25:08;24.80;63.40
30889;DHT22;51092;50.874;7.024;2023-06-22T06:26:12;24.80;63.10
30889;DHT22;51092;50.874;7.024;2023-06-22T06:27:13;24.90;62.50
30889;DHT22;51092;50.874;7.024;2023-06-22T06:28:16;25.00;30.00
30889;DHT22;51092;50.874;7.024;2023-06-22T06:29:17;25.10;44.20
30889;DHT22;51092;50.874;7.024;2023-06-22T06:30:21;25.20;44.30
30889;DHT22;51092;50.874;7.024;2023-06-22T06:31:23;25.20;44.40
30889;DHT22;51092;50.874;7.024;2023-06-22T06:32:25;25.20;44.30
30889;DHT22;51092;50.874;7.024;2023-06-22T06:33:27;25.20;44.40
30889;DHT22;51092;50.874;7.024;2023-06-22T06:34:29;25.20;44.40
30889;DHT22;51092;50.874;7.024;2023-06-22T06:35:30;25.20;44.50
30889;DHT22;51092;50.874;7.024;2023-06-22T06:36:33;25.20;44.50
30889;DHT22;51092;50.874;7.024;2023-06-22T06:37:37;25.00;30.00
30889;DHT22;51092;50.874;7.024;2023-06-22T06:38:38;25.00;30.00
30889;DHT22;51092;50.874;7.024;2023-06-22T06:39:41;24.90;60.10